Time;durP1;ratioP1;P1;durP2;ratioP2;P2;SDS_P1;SDS_P2;PMS_P1;PMS_P2;Temp;Humidity;BMP_temperature;BMP_pressure;BME280_temperature;BME280_humidity;BME280_pressure;Samples;Min_cycle;Max_cycle;Signal;HPM_P1;HPM_P2
2023/05/04 00:00:31;;;;;;;;;;;14.10;76.80;;;;;;5048494;28;19999;-70
2023/05/04 00:02:56;;;;;;;;;;;14.10;76.70;;;;;;5048509;28;19908;-70
2023/05/04 00:05:22;;;;;;;;;;;14.10;76.70;;;;;;5048168;28;20546;-71
2023/05/04 00:07:47;;;;;;;;;;;14.00;76.60;;;;;;5048292;28;20290;-70
2023/05/04 00:10:13;;;;;;;;;;;14.00;76.60;;;;;;5048627;28;19921;-70
2023/05/04 00:12:39;;;;;;;;;;;14.00;76.60;;;;;;5048240;28;20113;-70
2023/05/04 00:15:05;;;;;;;;;;;14.00;76.60;;;;;;5048221;28;19912;-70
2023/05/04 00:17:30;;;;;;;;;;;14.00;76.60;;;;;;5048057;28;19912;-70
2023/05/04 00:19:56;;;;;;;;;;;13.90;76.60;;;;;;5048190;28;19916;-70
2023/05/04 00:22:22;;;;;;;;;;;13.90;76.70;;;;;;5030353;28;19917;-70
2023/05/04 00:24:47;;;;;;;;;;;13.90;76.70;;;;;;5030151;28;19920;-70
2023/05/04 00:27:13;;;;;;;;;;;13.80;76.60;;;;;;5048047;28;19967;-70
2023/05/04 00:29:39;;;;;;;;;;;13.80;76.60;;;;;;5047952;28;19908;-70
2023/05/04 00:32:04;;;;;;;;;;;13.80;76.70;;;;;;5048100;28;19999;-70
2023/05/04 00:34:30;;;;;;;;;;;13.80;76.60;;;;;;5048265;28;19933;-70
2023/05/04 00:36:56;;;;;;;;;;;13.80;76.60;;;;;;5047931;28;19980;-70
2023/05/04 00:39:21;;;;;;;;;;;13.80;76.60;;;;;;5047897;28;19928;-70
2023/05/04 00:41:47;;;;;;;;;;;13.80;76.50;;;;;;5047882;28;19917;-71
2023/05/04 00:44:13;;;;;;;;;;;13.70;76.50;;;;;;5047772;28;19948;-70
2023/05/04 00:46:39;;;;;;;;;;;13.70;76.50;;;;;;5047759;28;20377;-70
2023/05/04 00:49:06;;;;;;;;;;;13.70;76.50;;;;;;5029878;28;19971;-70
2023/05/04 00:51:32;;;;;;;;;;;13.60;76.50;;;;;;5047697;28;19966;-70
2023/05/04 00:53:58;;;;;;;;;;;13.60;77.00;;;;;;5030050;28;19916;-70
2023/05/04 00:56:24;;;;;;;;;;;13.50;76.40;;;;;;5047679;28;19920;-70
2023/05/04 00:58:53;;;;;;;;;;;13.40;76.40;;;;;;5047686;28;19917;-70
2023/05/04 01:01:22;;;;;;;;;;;13.40;76.40;;;;;;5029971;28;19912;-70
2023/05/04 01:03:49;;;;;;;;;;;13.30;76.50;;;;;;5029593;28;19909;-70
2023/05/04 01:06:33;;;;;;;;;;;13.30;76.50;;;;;;5047508;28;20369;-70
2023/05/04 01:09:03;;;;;;;;;;;13.30;76.50;;;;;;5047932;28;19909;-70
2023/05/04 01:11:55;;;;;;;;;;;13.30;76.50;;;;;;5047818;28;19916;-70
2023/05/04 01:14:21;;;;;;;;;;;13.20;76.50;;;;;;5031266;28;19920;-70
2023/05/04 01:16:47;;;;;;;;;;;13.20;76.50;;;;;;5047324;28;19913;-70
2023/05/04 01:19:13;;;;;;;;;;;13.20;76.50;;;;;;5047451;28;19913;-70
2023/05/04 01:21:38;;;;;;;;;;;13.10;76.50;;;;;;5047418;28;19932;-70
2023/05/04 01:24:05;;;;;;;;;;;13.10;76.60;;;;;;5029525;28;19920;-70
2023/05/04 01:26:38;;;;;;;;;;;13.10;76.50;;;;;;5031823;28;20018;-70
2023/05/04 01:29:10;;;;;;;;;;;13.10;76.50;;;;;;5051310;28;19952;-70
2023/05/04 01:31:37;;;;;;;;;;;13.10;76.50;;;;;;5051203;28;20349;-70
2023/05/04 01:34:04;;;;;;;;;;;13.10;76.50;;;;;;5033104;28;19925;-70
2023/05/04 01:36:29;;;;;;;;;;;13.10;76.50;;;;;;5051175;28;19913;-70
2023/05/04 01:38:56;;;;;;;;;;;13.10;76.60;;;;;;5051241;28;19954;-70
2023/05/04 01:41:22;;;;;;;;;;;13.10;76.60;;;;;;5033370;28;19952;-70
2023/05/04 01:43:47;;;;;;;;;;;13.10;76.50;;;;;;5051065;28;20328;-70
2023/05/04 01:46:13;;;;;;;;;;;13.10;76.40;;;;;;5050927;28;19927;-70
2023/05/04 01:48:39;;;;;;;;;;;13.10;76.40;;;;;;5050859;28;20357;-70
2023/05/04 01:51:04;;;;;;;;;;;13.00;76.30;;;;;;5050901;28;19952;-70
2023/05/04 01:53:30;;;;;;;;;;;13.00;76.40;;;;;;5050854;28;19924;-70
2023/05/04 01:55:56;;;;;;;;;;;12.90;76.40;;;;;;5050781;28;20308;-70
2023/05/04 01:58:21;;;;;;;;;;;12.90;76.40;;;;;;5050683;28;20402;-70
2023/05/04 02:00:47;;;;;;;;;;;12.90;76.40;;;;;;5032981;28;19912;-70
2023/05/04 02:03:12;;;;;;;;;;;12.80;76.40;;;;;;5050793;28;19920;-70
2023/05/04 02:05:38;;;;;;;;;;;12.80;76.40;;;;;;5050625;28;19982;-70
2023/05/04 02:08:03;;;;;;;;;;;12.70;76.30;;;;;;5032671;28;19909;-70
2023/05/04 02:10:29;;;;;;;;;;;12.70;76.30;;;;;;5050543;28;19962;-70
2023/05/04 02:12:55;;;;;;;;;;;12.70;76.30;;;;;;5032674;28;19927;-70
2023/05/04 02:15:20;;;;;;;;;;;12.60;76.30;;;;;;5050674;28;19913;-70
2023/05/04 02:17:46;;;;;;;;;;;12.60;76.30;;;;;;5050436;28;19952;-70
2023/05/04 02:20:12;;;;;;;;;;;12.60;76.40;;;;;;5050425;28;19917;-70
2023/05/04 02:22:37;;;;;;;;;;;12.60;76.40;;;;;;5050323;28;19956;-70
2023/05/04 02:25:03;;;;;;;;;;;12.50;76.50;;;;;;5050278;28;20007;-70
2023/05/04 02:27:29;;;;;;;;;;;12.50;76.50;;;;;;5050084;28;20258;-70
2023/05/04 02:29:57;;;;;;;;;;;12.50;76.50;;;;;;5050272;28;19912;-70
2023/05/04 02:32:23;;;;;;;;;;;12.40;76.50;;;;;;5050139;28;19924;-70
2023/05/04 02:34:48;;;;;;;;;;;12.40;76.50;;;;;;5032263;28;19931;-70
2023/05/04 02:37:15;;;;;;;;;;;12.40;76.50;;;;;;5049813;28;19925;-70
2023/05/04 02:39:40;;;;;;;;;;;12.40;76.50;;;;;;5050039;28;19913;-70
2023/05/04 02:42:06;;;;;;;;;;;12.40;76.40;;;;;;5032122;28;20395;-70
2023/05/04 02:44:32;;;;;;;;;;;12.30;76.50;;;;;;5049929;28;19916;-70
2023/05/04 02:46:57;;;;;;;;;;;12.30;76.50;;;;;;5049843;28;19952;-70
2023/05/04 02:49:23;;;;;;;;;;;12.20;76.50;;;;;;5049850;28;19953;-70
2023/05/04 02:51:48;;;;;;;;;;;12.20;76.50;;;;;;5049850;28;19955;-70
2023/05/04 02:54:14;;;;;;;;;;;12.20;76.60;;;;;;5049682;28;19917;-70
2023/05/04 02:56:40;;;;;;;;;;;12.20;76.50;;;;;;5049647;28;19967;-70
2023/05/04 02:59:05;;;;;;;;;;;12.20;76.50;;;;;;5031845;28;19917;-70
2023/05/04 03:01:31;;;;;;;;;;;12.20;76.50;;;;;;5049664;28;20383;-70
2023/05/04 03:03:56;;;;;;;;;;;12.20;76.40;;;;;;5049586;28;19962;-70
2023/05/04 03:06:22;;;;;;;;;;;12.20;76.30;;;;;;5049354;28;19920;-70
2023/05/04 03:08:47;;;;;;;;;;;12.10;76.30;;;;;;5031574;28;19960;-70
2023/05/04 03:11:13;;;;;;;;;;;12.10;76.30;;;;;;5049517;28;20003;-70
2023/05/04 03:13:38;;;;;;;;;;;12.00;76.20;;;;;;5049410;28;19927;-70
2023/05/04 03:16:04;;;;;;;;;;;12.00;76.20;;;;;;5049298;28;20361;-70
2023/05/04 03:18:30;;;;;;;;;;;12.00;76.20;;;;;;5049618;28;19920;-70
2023/05/04 03:20:56;;;;;;;;;;;11.90;76.20;;;;;;5031271;28;20384;-70
2023/05/04 03:23:21;;;;;;;;;;;11.90;76.20;;;;;;5049180;28;19912;-70
2023/05/04 03:25:47;;;;;;;;;;;11.90;76.20;;;;;;5049089;28;20076;-70
2023/05/04 03:28:12;;;;;;;;;;;11.90;76.20;;;;;;5031425;28;19913;-70
2023/05/04 03:30:38;;;;;;;;;;;11.90;76.30;;;;;;5049358;28;20250;-70
2023/05/04 03:33:03;;;;;;;;;;;11.90;76.30;;;;;;5031123;28;19958;-70
2023/05/04 03:35:29;;;;;;;;;;;11.90;76.30;;;;;;5031243;28;19913;-70
2023/05/04 03:37:55;;;;;;;;;;;11.90;76.30;;;;;;5048828;28;19913;-70
2023/05/04 03:40:22;;;;;;;;;;;12.00;76.40;;;;;;5048968;28;19917;-70
2023/05/04 03:42:49;;;;;;;;;;;12.00;76.30;;;;;;5049053;28;19995;-71
2023/05/04 03:45:14;;;;;;;;;;;12.00;76.30;;;;;;5048728;28;19917;-70
2023/05/04 03:47:40;;;;;;;;;;;12.00;76.30;;;;;;5030586;28;19919;-70
2023/05/04 03:50:06;;;;;;;;;;;12.00;76.30;;;;;;5030416;28;19947;-70
2023/05/04 03:52:31;;;;;;;;;;;12.00;76.30;;;;;;5048646;28;19920;-70
2023/05/04 03:54:57;;;;;;;;;;;12.00;76.30;;;;;;5030791;28;20284;-70
2023/05/04 03:57:23;;;;;;;;;;;12.00;76.30;;;;;;5048492;28;19924;-70
2023/05/04 03:59:49;;;;;;;;;;;12.00;76.40;;;;;;5030829;28;20359;-70
2023/05/04 04:02:15;;;;;;;;;;;12.00;76.40;;;;;;5048598;28;19971;-70
2023/05/04 04:04:41;;;;;;;;;;;12.00;76.40;;;;;;5048367;28;19920;-69
2023/05/04 04:07:07;;;;;;;;;;;12.00;76.50;;;;;;5048554;28;20346;-70
2023/05/04 04:09:32;;;;;;;;;;;12.00;76.50;;;;;;5048375;28;19913;-70
2023/05/04 04:11:58;;;;;;;;;;;12.00;76.50;;;;;;5048453;28;19913;-70
2023/05/04 04:14:23;;;;;;;;;;;12.00;76.60;;;;;;5048225;28;20385;-70
2023/05/04 04:16:49;;;;;;;;;;;12.00;76.60;;;;;;5014285;28;19913;-70
2023/05/04 04:19:15;;;;;;;;;;;12.00;76.70;;;;;;5048356;28;20371;-70
2023/05/04 04:21:40;;;;;;;;;;;12.00;76.60;;;;;;5048172;28;19992;-70
2023/05/04 04:24:06;;;;;;;;;;;12.00;76.60;;;;;;5030395;28;20027;-71
2023/05/04 04:26:32;;;;;;;;;;;12.00;76.60;;;;;;5048116;28;19920;-70
2023/05/04 04:28:58;;;;;;;;;;;12.00;76.60;;;;;;5048021;28;20373;-70
2023/05/04 04:31:23;;;;;;;;;;;12.00;76.60;;;;;;5030107;28;19913;-70
2023/05/04 04:33:50;;;;;;;;;;;12.00;76.60;;;;;;5047842;28;20296;-70
2023/05/04 04:36:16;;;;;;;;;;;11.90;76.50;;;;;;5030166;28;20293;-70
2023/05/04 04:38:42;;;;;;;;;;;11.90;76.60;;;;;;5047848;28;19955;-70
2023/05/04 04:41:08;;;;;;;;;;;11.90;76.50;;;;;;5047927;28;19948;-70
2023/05/04 04:43:34;;;;;;;;;;;11.90;76.60;;;;;;5047764;28;19916;-70
2023/05/04 04:46:00;;;;;;;;;;;11.90;76.60;;;;;;5047831;28;19971;-69
2023/05/04 04:48:25;;;;;;;;;;;11.90;76.60;;;;;;5047672;28;19947;-70
2023/05/04 04:50:51;;;;;;;;;;;11.90;76.60;;;;;;5048219;28;20440;-70
2023/05/04 04:53:17;;;;;;;;;;;11.80;76.50;;;;;;5047681;28;20015;-70
2023/05/04 04:55:43;;;;;;;;;;;11.80;76.50;;;;;;5029816;28;19999;-70
2023/05/04 04:58:09;;;;;;;;;;;11.80;76.60;;;;;;5047555;28;19909;-70
2023/05/04 05:00:35;;;;;;;;;;;11.70;76.60;;;;;;5048702;28;19959;-70
2023/05/04 05:03:01;;;;;;;;;;;11.70;76.60;;;;;;5033757;28;19913;-70
2023/05/04 05:05:27;;;;;;;;;;;11.80;76.60;;;;;;5051684;28;19995;-70
2023/05/04 05:07:53;;;;;;;;;;;11.80;76.60;;;;;;5033918;28;20028;-70
2023/05/04 05:10:20;;;;;;;;;;;11.80;76.60;;;;;;5051728;28;19920;-70
2023/05/04 05:12:45;;;;;;;;;;;11.80;76.70;;;;;;5051789;28;19909;-70
2023/05/04 05:15:11;;;;;;;;;;;11.80;76.60;;;;;;5051575;28;19913;-70
2023/05/04 05:17:37;;;;;;;;;;;11.80;76.70;;;;;;5051434;28;20344;-70
2023/05/04 05:20:07;;;;;;;;;;;11.90;76.70;;;;;;5051409;28;20280;-71
2023/05/04 05:22:32;;;;;;;;;;;11.90;76.70;;;;;;5051513;28;20319;-71
2023/05/04 05:24:58;;;;;;;;;;;12.00;76.70;;;;;;5051432;28;19912;-71
2023/05/04 05:27:23;;;;;;;;;;;12.00;76.70;;;;;;5051320;28;19991;-71
2023/05/04 05:29:49;;;;;;;;;;;12.00;76.70;;;;;;5051407;28;19928;-71
2023/05/04 05:32:14;;;;;;;;;;;12.10;76.70;;;;;;5033399;28;19913;-71
2023/05/04 05:34:41;;;;;;;;;;;12.10;76.70;;;;;;5051009;28;20010;-71
2023/05/04 05:37:06;;;;;;;;;;;12.20;76.80;;;;;;5051019;28;19916;-71
2023/05/04 05:39:32;;;;;;;;;;;12.20;76.80;;;;;;5051240;28;19920;-71
2023/05/04 05:41:58;;;;;;;;;;;12.20;76.80;;;;;;5051139;28;20003;-71
2023/05/04 05:44:24;;;;;;;;;;;12.30;76.80;;;;;;5051041;28;20000;-71
2023/05/04 05:46:49;;;;;;;;;;;12.40;76.80;;;;;;5050968;28;19962;-71
2023/05/04 05:49:15;;;;;;;;;;;12.40;76.70;;;;;;5033003;28;19920;-71
2023/05/04 05:51:40;;;;;;;;;;;12.40;76.60;;;;;;5050795;28;19913;-71
2023/05/04 05:54:06;;;;;;;;;;;12.50;76.60;;;;;;5050824;28;19913;-71
2023/05/04 05:56:31;;;;;;;;;;;12.50;76.60;;;;;;5050562;28;20288;-71
2023/05/04 05:58:57;;;;;;;;;;;12.50;76.60;;;;;;5032307;28;19917;-71
2023/05/04 06:01:23;;;;;;;;;;;12.40;76.60;;;;;;5050580;28;20373;-71
2023/05/04 06:03:48;;;;;;;;;;;12.50;76.60;;;;;;5032721;28;20273;-71
2023/05/04 06:06:14;;;;;;;;;;;12.50;76.60;;;;;;5032632;28;20020;-71
2023/05/04 06:08:40;;;;;;;;;;;12.50;76.70;;;;;;5050136;28;20007;-71
2023/05/04 06:11:05;;;;;;;;;;;12.50;76.70;;;;;;5049703;28;20012;-71
2023/05/04 06:13:31;;;;;;;;;;;12.60;76.80;;;;;;5050089;28;20412;-71
2023/05/04 06:15:57;;;;;;;;;;;12.60;76.70;;;;;;5032399;28;19919;-71
2023/05/04 06:18:22;;;;;;;;;;;12.70;76.60;;;;;;5032276;28;20287;-71
2023/05/04 06:20:48;;;;;;;;;;;12.70;76.60;;;;;;5050250;28;19913;-71
2023/05/04 06:23:14;;;;;;;;;;;12.80;76.70;;;;;;5050141;28;20345;-71
2023/05/04 06:25:40;;;;;;;;;;;12.80;76.60;;;;;;5050036;28;20011;-71
2023/05/04 06:28:05;;;;;;;;;;;12.80;76.60;;;;;;5049787;28;20004;-70
2023/05/04 06:30:31;;;;;;;;;;;12.90;76.70;;;;;;5049885;28;20015;-71
2023/05/04 06:32:56;;;;;;;;;;;12.90;76.60;;;;;;5015225;28;19913;-71
2023/05/04 06:35:22;;;;;;;;;;;13.00;76.70;;;;;;5049690;28;19966;-71
2023/05/04 06:37:48;;;;;;;;;;;13.10;76.70;;;;;;5049750;28;19916;-70
2023/05/04 06:40:14;;;;;;;;;;;13.00;76.70;;;;;;5049721;28;19917;-71
2023/05/04 06:42:39;;;;;;;;;;;13.10;76.70;;;;;;5032105;28;19920;-70
2023/05/04 06:45:05;;;;;;;;;;;13.10;76.80;;;;;;5049694;28;19921;-70
2023/05/04 06:47:33;;;;;;;;;;;13.10;76.90;;;;;;5049632;28;19917;-71
2023/05/04 06:49:59;;;;;;;;;;;13.10;76.90;;;;;;5049678;28;19909;-71
2023/05/04 06:52:28;;;;;;;;;;;13.20;76.80;;;;;;5049689;28;19940;-70
2023/05/04 06:54:54;;;;;;;;;;;13.20;76.80;;;;;;5032326;28;19921;-70
2023/05/04 06:57:19;;;;;;;;;;;13.30;76.80;;;;;;5049766;28;20546;-71
2023/05/04 06:59:45;;;;;;;;;;;13.40;76.80;;;;;;5049330;28;19947;-71
2023/05/04 07:02:10;;;;;;;;;;;13.40;76.80;;;;;;5048960;28;19913;-71
2023/05/04 07:04:36;;;;;;;;;;;13.50;76.80;;;;;;5049140;28;19936;-70
2023/05/04 07:07:02;;;;;;;;;;;13.60;76.80;;;;;;5049155;28;19929;-71
2023/05/04 07:09:28;;;;;;;;;;;13.70;76.90;;;;;;5049323;28;19913;-71
2023/05/04 07:11:53;;;;;;;;;;;13.80;77.00;;;;;;5049212;28;20730;-71
2023/05/04 07:14:19;;;;;;;;;;;14.00;77.10;;;;;;5048898;28;19913;-71
2023/05/04 07:16:44;;;;;;;;;;;14.10;77.00;;;;;;5048648;28;19912;-71
2023/05/04 07:19:10;;;;;;;;;;;14.30;77.00;;;;;;5048867;28;19963;-70
2023/05/04 07:21:36;;;;;;;;;;;14.60;77.10;;;;;;5048984;28;19909;-71
2023/05/04 07:24:03;;;;;;;;;;;14.90;76.90;;;;;;5047858;28;19913;-71
2023/05/04 07:26:28;;;;;;;;;;;15.10;76.70;;;;;;5048751;28;19917;-71
2023/05/04 07:28:54;;;;;;;;;;;15.20;76.60;;;;;;5048861;28;19920;-71
2023/05/04 07:31:20;;;;;;;;;;;15.40;76.70;;;;;;5030787;28;19913;-71
2023/05/04 07:33:46;;;;;;;;;;;15.70;76.90;;;;;;5048441;28;19921;-71
2023/05/04 07:36:11;;;;;;;;;;;16.20;77.40;;;;;;5048472;28;20039;-71
2023/05/04 07:38:37;;;;;;;;;;;17.20;77.50;;;;;;5048341;28;20011;-71
2023/05/04 07:41:03;;;;;;;;;;;17.80;76.70;;;;;;5048542;28;19919;-71
2023/05/04 07:43:28;;;;;;;;;;;17.90;76.20;;;;;;5014034;28;19919;-72
2023/05/04 07:45:54;;;;;;;;;;;17.90;76.00;;;;;;5048038;28;19956;-72
2023/05/04 07:48:19;;;;;;;;;;;17.70;75.90;;;;;;5047674;28;19913;-73
2023/05/04 07:50:45;;;;;;;;;;;17.40;75.80;;;;;;5048026;28;19952;-72
2023/05/04 07:53:11;;;;;;;;;;;17.10;76.10;;;;;;5048100;28;20165;-72
2023/05/04 07:55:37;;;;;;;;;;;16.90;76.40;;;;;;5048050;28;19913;-72
2023/05/04 07:58:03;;;;;;;;;;;16.70;76.70;;;;;;5048048;28;19909;-72
2023/05/04 08:00:28;;;;;;;;;;;16.50;77.00;;;;;;5047999;28;19948;-72
2023/05/04 08:02:54;;;;;;;;;;;16.30;77.10;;;;;;5047689;28;19938;-72
2023/05/04 08:05:20;;;;;;;;;;;16.10;77.50;;;;;;5047435;28;20427;-72
2023/05/04 08:07:45;;;;;;;;;;;16.10;77.60;;;;;;5047720;28;19913;-72
2023/05/04 08:10:11;;;;;;;;;;;16.00;77.40;;;;;;5047679;28;19941;-72
2023/05/04 08:12:38;;;;;;;;;;;15.90;77.60;;;;;;5047938;28;19912;-72
2023/05/04 08:15:04;;;;;;;;;;;15.80;77.70;;;;;;5047946;28;19912;-72
2023/05/04 08:17:30;;;;;;;;;;;15.70;77.80;;;;;;5048123;28;19917;-72
2023/05/04 08:19:56;;;;;;;;;;;15.70;78.00;;;;;;5047586;28;19924;-72
2023/05/04 08:22:21;;;;;;;;;;;15.70;77.90;;;;;;5029883;28;20005;-72
2023/05/04 08:24:47;;;;;;;;;;;15.80;77.70;;;;;;5041625;28;20096;-71
2023/05/04 08:27:15;;;;;;;;;;;15.80;77.70;;;;;;5036030;28;19921;-72
2023/05/04 08:29:41;;;;;;;;;;;15.80;77.60;;;;;;5036393;28;20011;-72
2023/05/04 08:32:07;;;;;;;;;;;15.90;77.60;;;;;;5037885;28;20047;-73
2023/05/04 08:34:33;;;;;;;;;;;15.90;78.00;;;;;;5036098;28;19921;-73
2023/05/04 08:36:58;;;;;;;;;;;15.90;77.40;;;;;;5037183;28;19924;-72
2023/05/04 08:39:24;;;;;;;;;;;15.90;77.30;;;;;;5038466;28;19919;-72
2023/05/04 08:41:50;;;;;;;;;;;15.90;77.50;;;;;;5036091;28;19956;-73
2023/05/04 08:44:16;;;;;;;;;;;16.00;77.60;;;;;;5018753;28;19913;-73
2023/05/04 08:46:42;;;;;;;;;;;16.10;77.70;;;;;;5037292;28;19924;-73
2023/05/04 08:49:09;;;;;;;;;;;16.20;77.80;;;;;;5035827;28;19909;-74
2023/05/04 08:51:36;;;;;;;;;;;16.40;77.80;;;;;;5036788;28;19935;-75
2023/05/04 08:54:04;;;;;;;;;;;16.60;78.20;;;;;;5019486;28;19912;-74
2023/05/04 08:56:30;;;;;;;;;;;16.90;78.20;;;;;;5035694;28;20008;-74
2023/05/04 08:59:00;;;;;;;;;;;17.30;78.10;;;;;;5035458;28;20008;-71
2023/05/04 09:01:27;;;;;;;;;;;17.50;78.20;;;;;;5035274;28;19963;-74
2023/05/04 09:03:52;;;;;;;;;;;17.80;78.00;;;;;;5035443;28;20298;-71
2023/05/04 09:06:18;;;;;;;;;;;18.10;78.20;;;;;;5035937;28;19947;-72
2023/05/04 09:08:44;;;;;;;;;;;18.80;78.80;;;;;;5019409;28;19915;-70
2023/05/04 09:11:09;;;;;;;;;;;19.40;79.20;;;;;;5035129;28;19910;-72
2023/05/04 09:13:35;;;;;;;;;;;20.10;78.90;;;;;;5036109;28;19913;-72
2023/05/04 09:16:02;;;;;;;;;;;20.40;78.50;;;;;;5035429;28;20019;-72
2023/05/04 09:18:38;;;;;;;;;;;20.50;78.40;;;;;;5036998;28;19920;-72
2023/05/04 09:21:04;;;;;;;;;;;20.50;78.20;;;;;;5038529;28;19954;-73
2023/05/04 09:23:29;;;;;;;;;;;20.30;77.60;;;;;;5043949;28;20011;-72
2023/05/04 09:25:55;;;;;;;;;;;20.00;77.30;;;;;;5036461;28;19975;-72
2023/05/04 09:28:32;;;;;;;;;;;19.70;77.30;;;;;;5021104;28;19997;-72
2023/05/04 09:31:01;;;;;;;;;;;19.40;77.40;;;;;;5035312;28;19909;-72
2023/05/04 09:33:27;;;;;;;;;;;19.10;77.50;;;;;;5035992;28;19936;-72
2023/05/04 09:35:52;;;;;;;;;;;18.90;78.10;;;;;;5038953;28;19909;-73
2023/05/04 09:38:25;;;;;;;;;;;18.90;78.40;;;;;;5041841;28;19916;-72
2023/05/04 09:40:51;;;;;;;;;;;19.10;78.60;;;;;;5042852;28;19992;-72
2023/05/04 09:43:17;;;;;;;;;;;19.30;78.80;;;;;;5029453;28;19954;-72
2023/05/04 09:45:44;;;;;;;;;;;19.60;79.00;;;;;;5013742;28;19921;-72
2023/05/04 09:48:16;;;;;;;;;;;20.00;79.00;;;;;;5046142;28;20345;-72
2023/05/04 09:50:52;;;;;;;;;;;20.20;78.90;;;;;;5031534;28;19921;-73
2023/05/04 09:53:19;;;;;;;;;;;20.50;79.30;;;;;;5041042;28;19913;-73
2023/05/04 09:55:46;;;;;;;;;;;20.90;79.50;;;;;;5043683;28;19916;-73
2023/05/04 09:58:14;;;;;;;;;;;21.60;79.70;;;;;;5022973;28;19920;-73
2023/05/04 10:00:40;;;;;;;;;;;21.90;79.00;;;;;;5051010;28;20052;-75
2023/05/04 10:03:06;;;;;;;;;;;21.90;78.80;;;;;;5051472;28;19974;-79
2023/05/04 10:05:32;;;;;;;;;;;21.80;78.70;;;;;;5051782;28;19936;-74
2023/05/04 10:07:58;;;;;;;;;;;21.60;79.00;;;;;;5051811;28;19974;-80
2023/05/04 10:10:24;;;;;;;;;;;21.60;78.90;;;;;;5052369;28;19913;-79
2023/05/04 10:12:50;;;;;;;;;;;21.40;78.70;;;;;;5052287;28;20019;-79
2023/05/04 10:15:16;;;;;;;;;;;21.10;78.90;;;;;;5051856;28;19913;-79
2023/05/04 10:17:44;;;;;;;;;;;21.10;79.80;;;;;;5052073;28;19916;-78
2023/05/04 10:20:33;;;;;;;;;;;21.10;79.60;;;;;;5051515;28;19909;-80
2023/05/04 10:23:02;;;;;;;;;;;21.30;80.00;;;;;;5014681;28;19940;-78
2023/05/04 10:25:27;;;;;;;;;;;21.20;79.20;;;;;;5051671;28;19912;-78
2023/05/04 10:27:53;;;;;;;;;;;20.80;79.00;;;;;;5051580;28;20266;-78
2023/05/04 10:30:19;;;;;;;;;;;20.40;79.10;;;;;;5051581;28;20281;-78
2023/05/04 10:32:44;;;;;;;;;;;20.00;78.60;;;;;;5051875;28;20331;-77
2023/05/04 10:35:10;;;;;;;;;;;19.40;78.30;;;;;;5052966;28;19967;-79
2023/05/04 10:37:38;;;;;;;;;;;18.60;78.50;;;;;;5033294;28;19928;-78
2023/05/04 10:40:04;;;;;;;;;;;18.10;79.00;;;;;;5051118;28;20437;-78
2023/05/04 10:42:42;;;;;;;;;;;17.70;79.30;;;;;;5033676;28;19962;-78
2023/05/04 10:45:09;;;;;;;;;;;17.40;79.10;;;;;;5051136;28;20298;-78
2023/05/04 10:47:36;;;;;;;;;;;17.20;79.10;;;;;;5051495;28;20238;-80
2023/05/04 10:50:03;;;;;;;;;;;16.90;79.40;;;;;;5051443;28;20023;-76
2023/05/04 10:52:30;;;;;;;;;;;16.90;79.70;;;;;;5032946;28;20380;-73
2023/05/04 10:55:00;;;;;;;;;;;17.10;80.00;;;;;;5050967;28;19909;-79
2023/05/04 10:57:27;;;;;;;;;;;17.60;80.50;;;;;;5033808;28;19927;-79
2023/05/04 10:59:54;;;;;;;;;;;18.10;80.20;;;;;;5050724;28;20337;-77
2023/05/04 11:02:26;;;;;;;;;;;18.40;79.30;;;;;;5051360;28;19931;-78
2023/05/04 11:05:05;;;;;;;;;;;18.30;78.90;;;;;;5050850;28;19928;-78
2023/05/04 11:07:37;;;;;;;;;;;18.30;78.90;;;;;;5050772;28;19956;-78
2023/05/04 11:10:03;;;;;;;;;;;18.30;78.60;;;;;;5023505;28;19921;-78
2023/05/04 11:12:32;;;;;;;;;;;18.10;78.70;;;;;;5034859;28;20253;-76
2023/05/04 11:15:05;;;;;;;;;;;18.00;78.80;;;;;;5049551;28;20587;-71
2023/05/04 11:17:31;;;;;;;;;;;17.80;78.50;;;;;;5050920;28;20351;-77
2023/05/04 11:19:56;;;;;;;;;;;17.50;78.50;;;;;;5049881;28;19947;-74
2023/05/04 11:22:22;;;;;;;;;;;17.40;78.80;;;;;;5050517;28;19920;-78
2023/05/04 11:24:48;;;;;;;;;;;17.30;78.50;;;;;;5049681;28;19977;-76
2023/05/04 11:27:23;;;;;;;;;;;17.10;78.50;;;;;;5049596;28;19913;-79
2023/05/04 11:29:53;;;;;;;;;;;16.80;78.60;;;;;;5050910;28;19908;-79
2023/05/04 11:32:18;;;;;;;;;;;16.70;78.70;;;;;;5032322;28;19924;-79
2023/05/04 11:34:47;;;;;;;;;;;16.60;78.50;;;;;;5050973;28;19924;-81
2023/05/04 11:37:12;;;;;;;;;;;16.50;78.40;;;;;;5032567;28;20353;-78
2023/05/04 11:39:38;;;;;;;;;;;16.30;78.20;;;;;;5050495;28;19923;-80
2023/05/04 11:42:07;;;;;;;;;;;16.10;78.80;;;;;;5049013;28;19913;-79
2023/05/04 11:44:34;;;;;;;;;;;16.00;78.40;;;;;;5049044;28;19909;-77
2023/05/04 11:47:00;;;;;;;;;;;15.80;78.30;;;;;;5031449;28;20000;-78
2023/05/04 11:49:26;;;;;;;;;;;15.80;78.80;;;;;;5031515;28;20640;-79
2023/05/04 11:51:52;;;;;;;;;;;15.80;78.70;;;;;;5049632;28;20273;-77
2023/05/04 11:54:18;;;;;;;;;;;15.90;78.70;;;;;;5049546;28;19913;-77
2023/05/04 11:56:44;;;;;;;;;;;15.90;78.50;;;;;;5050288;28;19951;-79
2023/05/04 11:59:09;;;;;;;;;;;16.00;78.30;;;;;;5050274;28;19940;-80
2023/05/04 12:01:35;;;;;;;;;;;15.80;77.80;;;;;;5050120;28;19913;-79
2023/05/04 12:04:01;;;;;;;;;;;15.60;78.10;;;;;;5049802;28;19917;-77
2023/05/04 12:06:30;;;;;;;;;;;15.60;78.20;;;;;;5050128;28;19924;-78
2023/05/04 12:09:00;;;;;;;;;;;15.50;78.40;;;;;;5050492;28;19920;-79
2023/05/04 12:11:26;;;;;;;;;;;15.50;78.50;;;;;;5049475;28;19960;-77
2023/05/04 12:14:01;;;;;;;;;;;15.60;78.30;;;;;;5019632;28;20329;-77
2023/05/04 12:16:26;;;;;;;;;;;15.70;78.20;;;;;;5035722;28;19910;-77
2023/05/04 12:18:59;;;;;;;;;;;15.70;78.20;;;;;;5012413;28;20308;-78
2023/05/04 12:21:25;;;;;;;;;;;15.90;78.70;;;;;;5043461;28;19909;-78
2023/05/04 12:23:51;;;;;;;;;;;16.10;78.40;;;;;;5044397;28;20380;-77
2023/05/04 12:26:16;;;;;;;;;;;16.30;78.20;;;;;;5038126;28;19917;-78
2023/05/04 12:28:42;;;;;;;;;;;16.50;78.10;;;;;;5047380;28;19956;-77
2023/05/04 12:31:08;;;;;;;;;;;16.60;77.80;;;;;;5050128;28;19909;-77
2023/05/04 12:33:33;;;;;;;;;;;16.80;78.00;;;;;;5019561;28;19960;-76
2023/05/04 12:36:00;;;;;;;;;;;17.00;77.90;;;;;;5020481;28;19913;-78
2023/05/04 12:38:26;;;;;;;;;;;17.10;77.50;;;;;;5021441;28;19929;-77
2023/05/04 12:40:52;;;;;;;;;;;17.00;77.70;;;;;;5017991;28;19929;-76
2023/05/04 12:43:21;;;;;;;;;;;17.10;77.80;;;;;;5024258;28;19910;-78
2023/05/04 12:45:50;;;;;;;;;;;17.10;77.70;;;;;;5020147;28;20449;-78
2023/05/04 12:48:16;;;;;;;;;;;17.10;77.60;;;;;;5020565;28;19997;-78
2023/05/04 12:50:50;;;;;;;;;;;17.00;77.40;;;;;;5019725;28;19909;-77
2023/05/04 12:53:16;;;;;;;;;;;17.10;77.40;;;;;;5021152;28;19969;-77
2023/05/04 12:55:42;;;;;;;;;;;17.00;77.30;;;;;;5014806;28;19963;-77
2023/05/04 12:58:08;;;;;;;;;;;17.00;77.70;;;;;;5014058;28;19909;-79
2023/05/04 13:00:37;;;;;;;;;;;17.10;77.50;;;;;;5017677;28;19921;-78
2023/05/04 13:03:03;;;;;;;;;;;17.10;77.20;;;;;;5017303;28;19956;-78
2023/05/04 13:05:29;;;;;;;;;;;17.00;77.30;;;;;;5018765;28;20394;-78
2023/05/04 13:07:55;;;;;;;;;;;16.90;77.80;;;;;;5021628;28;19932;-78
2023/05/04 13:10:21;;;;;;;;;;;16.90;78.20;;;;;;5023341;28;20417;-78
2023/05/04 13:12:47;;;;;;;;;;;16.80;77.90;;;;;;5022466;28;19920;-78
2023/05/04 13:15:13;;;;;;;;;;;16.80;78.10;;;;;;5023336;28;19913;-78
2023/05/04 13:17:38;;;;;;;;;;;16.90;78.00;;;;;;5025461;28;20043;-78
2023/05/04 13:20:05;;;;;;;;;;;16.90;77.70;;;;;;5025166;28;19913;-79
2023/05/04 13:22:31;;;;;;;;;;;16.90;77.60;;;;;;5022414;28;20356;-77
2023/05/04 13:24:56;;;;;;;;;;;16.90;77.60;;;;;;5026845;28;19913;-78
2023/05/04 13:27:22;;;;;;;;;;;16.90;77.70;;;;;;5031594;28;20400;-78
2023/05/04 13:29:47;;;;;;;;;;;17.00;77.60;;;;;;5025739;28;19920;-78
2023/05/04 13:32:13;;;;;;;;;;;17.00;77.50;;;;;;5025462;28;19913;-78
2023/05/04 13:34:39;;;;;;;;;;;17.00;77.40;;;;;;5039907;28;19920;-78
2023/05/04 13:37:04;;;;;;;;;;;16.90;77.50;;;;;;5040364;28;20301;-78
2023/05/04 13:39:38;;;;;;;;;;;17.00;77.60;;;;;;5040755;28;20004;-78
2023/05/04 13:42:03;;;;;;;;;;;17.10;77.30;;;;;;5039236;28;19932;-78
2023/05/04 13:44:29;;;;;;;;;;;17.10;77.40;;;;;;5039216;28;19913;-78
2023/05/04 13:46:55;;;;;;;;;;;17.10;77.70;;;;;;5037980;28;19924;-77
2023/05/04 13:49:20;;;;;;;;;;;17.20;77.90;;;;;;5038404;28;19924;-78
2023/05/04 13:51:46;;;;;;;;;;;17.30;77.60;;;;;;5047664;28;20250;-78
2023/05/04 13:54:11;;;;;;;;;;;17.20;77.80;;;;;;5049423;28;19939;-79
2023/05/04 13:56:37;;;;;;;;;;;17.10;77.80;;;;;;5043081;28;19914;-78
2023/05/04 13:59:03;;;;;;;;;;;17.10;77.90;;;;;;5044089;28;19924;-72
2023/05/04 14:01:28;;;;;;;;;;;17.20;78.00;;;;;;5001011;28;19924;-75
2023/05/04 14:03:54;;;;;;;;;;;17.30;78.10;;;;;;5018297;28;19933;-76
2023/05/04 14:06:20;;;;;;;;;;;17.40;78.00;;;;;;5039963;28;19923;-73
2023/05/04 14:08:46;;;;;;;;;;;17.50;78.20;;;;;;5038319;28;19921;-71
2023/05/04 14:11:12;;;;;;;;;;;17.60;78.20;;;;;;5018660;28;19982;-73